sensor_id;sensor_type;location;lat;lon;timestamp;P1;durP1;ratioP1;P2;durP2;ratioP2
19187;SDS011;9726;52.198;8.792;2022-11-15T00:01:46;15.60;;;9.13;;
19187;SDS011;9726;52.198;8.792;2022-11-15T00:04:32;14.70;;;8.50;;
19187;SDS011;9726;52.198;8.792;2022-11-15T00:07:18;13.50;;;8.37;;
19187;SDS011;9726;52.198;8.792;2022-11-15T00:10:24;13.70;;;8.47;;
19187;SDS011;9726;52.198;8.792;2022-11-15T00:13:11;13.47;;;8.10;;
19187;SDS011;9726;52.198;8.792;2022-11-15T00:15:58;13.63;;;7.43;;
19187;SDS011;9726;52.198;8.792;2022-11-15T00:18:44;19.27;;;8.33;;
19187;SDS011;9726;52.198;8.792;2022-11-15T00:21:35;12.97;;;6.77;;
19187;SDS011;9726;52.198;8.792;2022-11-15T00:24:20;14.77;;;7.63;;
19187;SDS011;9726;52.198;8.792;2022-11-15T00:27:06;11.33;;;7.43;;
19187;SDS011;9726;52.198;8.792;2022-11-15T00:29:52;12.17;;;7.90;;
19187;SDS011;9726;52.198;8.792;2022-11-15T00:32:38;16.23;;;8.27;;
19187;SDS011;9726;52.198;8.792;2022-11-15T00:35:23;17.40;;;7.77;;
19187;SDS011;9726;52.198;8.792;2022-11-15T00:38:09;14.53;;;8.60;;
19187;SDS011;9726;52.198;8.792;2022-11-15T00:40:55;15.50;;;8.23;;
19187;SDS011;9726;52.198;8.792;2022-11-15T00:43:40;18.70;;;9.30;;
19187;SDS011;9726;52.198;8.792;2022-11-15T00:46:28;20.20;;;10.63;;
19187;SDS011;9726;52.198;8.792;2022-11-15T00:49:14;13.70;;;8.53;;
19187;SDS011;9726;52.198;8.792;2022-11-15T00:52:00;20.90;;;9.53;;
19187;SDS011;9726;52.198;8.792;2022-11-15T00:54:45;15.20;;;8.67;;
19187;SDS011;9726;52.198;8.792;2022-11-15T00:57:31;13.43;;;8.73;;
19187;SDS011;9726;52.198;8.792;2022-11-15T01:00:17;16.57;;;9.67;;
19187;SDS011;9726;52.198;8.792;2022-11-15T01:03:03;16.70;;;9.60;;
19187;SDS011;9726;52.198;8.792;2022-11-15T01:05:48;17.63;;;9.43;;
19187;SDS011;9726;52.198;8.792;2022-11-15T01:08:34;16.57;;;9.30;;
19187;SDS011;9726;52.198;8.792;2022-11-15T01:11:20;19.03;;;9.50;;
19187;SDS011;9726;52.198;8.792;2022-11-15T01:14:06;14.90;;;9.07;;
19187;SDS011;9726;52.198;8.792;2022-11-15T01:16:52;15.67;;;9.10;;
19187;SDS011;9726;52.198;8.792;2022-11-15T01:19:38;21.40;;;9.23;;
19187;SDS011;9726;52.198;8.792;2022-11-15T01:22:23;12.60;;;8.10;;
19187;SDS011;9726;52.198;8.792;2022-11-15T01:25:09;14.77;;;7.83;;
19187;SDS011;9726;52.198;8.792;2022-11-15T01:27:54;13.67;;;7.63;;
19187;SDS011;9726;52.198;8.792;2022-11-15T01:30:40;16.70;;;7.97;;
19187;SDS011;9726;52.198;8.792;2022-11-15T01:33:27;14.93;;;7.40;;
19187;SDS011;9726;52.198;8.792;2022-11-15T01:36:15;16.50;;;7.97;;
19187;SDS011;9726;52.198;8.792;2022-11-15T01:39:03;10.70;;;7.50;;
19187;SDS011;9726;52.198;8.792;2022-11-15T01:41:48;17.17;;;7.70;;
19187;SDS011;9726;52.198;8.792;2022-11-15T01:47:21;16.90;;;8.23;;
19187;SDS011;9726;52.198;8.792;2022-11-15T01:50:10;12.63;;;7.20;;
19187;SDS011;9726;52.198;8.792;2022-11-15T01:53:00;17.30;;;7.23;;
19187;SDS011;9726;52.198;8.792;2022-11-15T01:55:46;17.80;;;7.33;;
19187;SDS011;9726;52.198;8.792;2022-11-15T01:58:33;16.30;;;7.27;;
19187;SDS011;9726;52.198;8.792;2022-11-15T02:01:20;13.90;;;7.30;;
19187;SDS011;9726;52.198;8.792;2022-11-15T02:04:13;13.73;;;7.23;;
19187;SDS011;9726;52.198;8.792;2022-11-15T02:07:02;14.53;;;7.63;;
19187;SDS011;9726;52.198;8.792;2022-11-15T02:09:50;11.73;;;7.10;;
19187;SDS011;9726;52.198;8.792;2022-11-15T02:12:36;13.80;;;7.20;;
19187;SDS011;9726;52.198;8.792;2022-11-15T02:15:23;13.20;;;6.87;;
19187;SDS011;9726;52.198;8.792;2022-11-15T02:18:18;14.83;;;7.47;;
19187;SDS011;9726;52.198;8.792;2022-11-15T02:21:17;15.20;;;7.97;;
19187;SDS011;9726;52.198;8.792;2022-11-15T02:24:23;18.40;;;8.23;;
19187;SDS011;9726;52.198;8.792;2022-11-15T02:36:44;13.90;;;8.80;;
19187;SDS011;9726;52.198;8.792;2022-11-15T02:42:55;17.20;;;9.53;;
19187;SDS011;9726;52.198;8.792;2022-11-15T02:46:08;20.90;;;9.83;;
19187;SDS011;9726;52.198;8.792;2022-11-15T02:49:34;21.43;;;11.17;;
19187;SDS011;9726;52.198;8.792;2022-11-15T02:52:22;16.10;;;10.33;;
19187;SDS011;9726;52.198;8.792;2022-11-15T02:55:30;20.07;;;10.63;;
19187;SDS011;9726;52.198;8.792;2022-11-15T03:04:59;23.00;;;11.80;;
19187;SDS011;9726;52.198;8.792;2022-11-15T03:13:59;29.47;;;14.57;;
19187;SDS011;9726;52.198;8.792;2022-11-15T03:19:34;23.53;;;14.03;;
19187;SDS011;9726;52.198;8.792;2022-11-15T03:22:38;26.33;;;13.10;;
19187;SDS011;9726;52.198;8.792;2022-11-15T03:25:27;26.77;;;13.83;;
19187;SDS011;9726;52.198;8.792;2022-11-15T03:28:16;21.17;;;12.97;;
19187;SDS011;9726;52.198;8.792;2022-11-15T03:31:13;27.37;;;14.83;;
19187;SDS011;9726;52.198;8.792;2022-11-15T03:34:29;22.70;;;14.80;;
19187;SDS011;9726;52.198;8.792;2022-11-15T03:37:16;24.23;;;14.13;;
19187;SDS011;9726;52.198;8.792;2022-11-15T03:40:06;28.57;;;14.77;;
19187;SDS011;9726;52.198;8.792;2022-11-15T03:43:07;29.57;;;15.30;;
19187;SDS011;9726;52.198;8.792;2022-11-15T03:46:11;25.97;;;15.87;;
19187;SDS011;9726;52.198;8.792;2022-11-15T03:49:04;23.47;;;14.27;;
19187;SDS011;9726;52.198;8.792;2022-11-15T03:51:56;28.17;;;15.23;;
19187;SDS011;9726;52.198;8.792;2022-11-15T03:54:55;25.57;;;15.37;;
19187;SDS011;9726;52.198;8.792;2022-11-15T03:57:42;25.73;;;15.80;;
19187;SDS011;9726;52.198;8.792;2022-11-15T04:00:28;25.47;;;14.23;;
19187;SDS011;9726;52.198;8.792;2022-11-15T04:03:14;24.13;;;14.83;;
19187;SDS011;9726;52.198;8.792;2022-11-15T04:06:00;22.07;;;14.03;;
19187;SDS011;9726;52.198;8.792;2022-11-15T04:08:45;26.03;;;14.40;;
19187;SDS011;9726;52.198;8.792;2022-11-15T04:11:31;20.07;;;12.67;;
19187;SDS011;9726;52.198;8.792;2022-11-15T04:14:17;20.20;;;13.57;;
19187;SDS011;9726;52.198;8.792;2022-11-15T04:17:02;24.77;;;12.83;;
19187;SDS011;9726;52.198;8.792;2022-11-15T04:19:48;24.13;;;13.50;;
19187;SDS011;9726;52.198;8.792;2022-11-15T04:22:53;28.43;;;13.40;;
19187;SDS011;9726;52.198;8.792;2022-11-15T04:26:02;27.27;;;13.43;;
19187;SDS011;9726;52.198;8.792;2022-11-15T04:28:49;28.83;;;13.93;;
19187;SDS011;9726;52.198;8.792;2022-11-15T04:31:54;23.60;;;13.57;;
19187;SDS011;9726;52.198;8.792;2022-11-15T04:34:39;27.67;;;13.67;;
19187;SDS011;9726;52.198;8.792;2022-11-15T04:37:25;24.27;;;14.27;;
19187;SDS011;9726;52.198;8.792;2022-11-15T04:40:11;29.23;;;13.97;;
19187;SDS011;9726;52.198;8.792;2022-11-15T04:42:57;23.37;;;13.93;;
19187;SDS011;9726;52.198;8.792;2022-11-15T04:45:47;23.80;;;14.70;;
19187;SDS011;9726;52.198;8.792;2022-11-15T04:48:33;24.63;;;13.70;;
19187;SDS011;9726;52.198;8.792;2022-11-15T04:51:19;27.17;;;15.00;;
19187;SDS011;9726;52.198;8.792;2022-11-15T04:54:05;27.97;;;16.10;;
19187;SDS011;9726;52.198;8.792;2022-11-15T04:56:51;23.77;;;15.53;;
19187;SDS011;9726;52.198;8.792;2022-11-15T04:59:37;28.73;;;15.33;;
19187;SDS011;9726;52.198;8.792;2022-11-15T05:02:23;35.53;;;14.70;;
19187;SDS011;9726;52.198;8.792;2022-11-15T05:05:29;26.23;;;13.77;;
19187;SDS011;9726;52.198;8.792;2022-11-15T05:08:15;23.47;;;14.70;;
19187;SDS011;9726;52.198;8.792;2022-11-15T05:11:01;25.17;;;14.33;;
19187;SDS011;9726;52.198;8.792;2022-11-15T05:13:47;28.83;;;14.37;;
19187;SDS011;9726;52.198;8.792;2022-11-15T05:16:34;26.70;;;14.67;;
19187;SDS011;9726;52.198;8.792;2022-11-15T05:19:20;23.23;;;14.17;;
19187;SDS011;9726;52.198;8.792;2022-11-15T05:22:05;22.57;;;13.23;;
19187;SDS011;9726;52.198;8.792;2022-11-15T05:24:51;22.67;;;13.30;;
19187;SDS011;9726;52.198;8.792;2022-11-15T05:27:36;29.87;;;13.27;;
19187;SDS011;9726;52.198;8.792;2022-11-15T05:30:22;22.43;;;12.13;;
19187;SDS011;9726;52.198;8.792;2022-11-15T05:33:08;35.57;;;16.03;;
19187;SDS011;9726;52.198;8.792;2022-11-15T05:35:54;26.40;;;12.63;;
19187;SDS011;9726;52.198;8.792;2022-11-15T05:38:48;18.50;;;12.13;;
19187;SDS011;9726;52.198;8.792;2022-11-15T05:41:39;19.17;;;10.87;;
19187;SDS011;9726;52.198;8.792;2022-11-15T05:44:31;20.13;;;11.85;;
19187;SDS011;9726;52.198;8.792;2022-11-15T05:47:21;20.87;;;13.13;;
19187;SDS011;9726;52.198;8.792;2022-11-15T05:50:13;19.73;;;11.67;;
19187;SDS011;9726;52.198;8.792;2022-11-15T05:53:03;19.80;;;11.50;;
19187;SDS011;9726;52.198;8.792;2022-11-15T05:55:49;25.23;;;12.23;;
19187;SDS011;9726;52.198;8.792;2022-11-15T05:58:35;19.60;;;10.80;;
19187;SDS011;9726;52.198;8.792;2022-11-15T06:01:22;20.63;;;11.07;;
19187;SDS011;9726;52.198;8.792;2022-11-15T06:04:08;21.53;;;10.77;;
19187;SDS011;9726;52.198;8.792;2022-11-15T06:06:54;26.27;;;12.00;;
19187;SDS011;9726;52.198;8.792;2022-11-15T06:09:39;21.20;;;11.63;;
19187;SDS011;9726;52.198;8.792;2022-11-15T06:12:25;17.87;;;10.73;;
19187;SDS011;9726;52.198;8.792;2022-11-15T06:15:11;17.83;;;10.90;;
19187;SDS011;9726;52.198;8.792;2022-11-15T06:17:57;22.07;;;11.57;;
19187;SDS011;9726;52.198;8.792;2022-11-15T06:20:43;21.10;;;11.17;;
19187;SDS011;9726;52.198;8.792;2022-11-15T06:23:31;15.80;;;10.93;;
19187;SDS011;9726;52.198;8.792;2022-11-15T06:26:18;19.13;;;11.07;;
19187;SDS011;9726;52.198;8.792;2022-11-15T06:29:04;18.53;;;10.27;;
19187;SDS011;9726;52.198;8.792;2022-11-15T06:31:50;20.10;;;10.53;;
19187;SDS011;9726;52.198;8.792;2022-11-15T06:34:36;15.57;;;10.33;;
19187;SDS011;9726;52.198;8.792;2022-11-15T06:37:22;17.57;;;10.83;;
19187;SDS011;9726;52.198;8.792;2022-11-15T06:40:08;16.33;;;10.40;;
19187;SDS011;9726;52.198;8.792;2022-11-15T06:42:58;19.37;;;11.53;;
19187;SDS011;9726;52.198;8.792;2022-11-15T06:45:44;18.40;;;11.10;;
19187;SDS011;9726;52.198;8.792;2022-11-15T06:48:30;19.13;;;11.67;;
19187;SDS011;9726;52.198;8.792;2022-11-15T06:51:17;15.57;;;10.27;;
19187;SDS011;9726;52.198;8.792;2022-11-15T06:54:03;18.03;;;12.23;;
19187;SDS011;9726;52.198;8.792;2022-11-15T06:56:48;17.10;;;10.63;;
19187;SDS011;9726;52.198;8.792;2022-11-15T06:59:33;19.47;;;12.07;;
19187;SDS011;9726;52.198;8.792;2022-11-15T07:02:24;14.30;;;9.43;;
19187;SDS011;9726;52.198;8.792;2022-11-15T07:05:11;13.40;;;9.87;;
19187;SDS011;9726;52.198;8.792;2022-11-15T07:07:57;17.00;;;10.13;;
19187;SDS011;9726;52.198;8.792;2022-11-15T07:10:43;19.27;;;9.30;;
19187;SDS011;9726;52.198;8.792;2022-11-15T07:13:29;13.63;;;9.53;;
19187;SDS011;9726;52.198;8.792;2022-11-15T07:16:20;14.90;;;9.43;;
19187;SDS011;9726;52.198;8.792;2022-11-15T07:19:05;12.33;;;8.70;;
19187;SDS011;9726;52.198;8.792;2022-11-15T07:21:51;13.83;;;9.37;;
19187;SDS011;9726;52.198;8.792;2022-11-15T07:24:36;14.83;;;8.33;;
19187;SDS011;9726;52.198;8.792;2022-11-15T07:27:22;15.87;;;9.87;;
19187;SDS011;9726;52.198;8.792;2022-11-15T07:30:08;14.73;;;8.93;;
19187;SDS011;9726;52.198;8.792;2022-11-15T07:35:39;14.67;;;7.70;;
19187;SDS011;9726;52.198;8.792;2022-11-15T07:38:27;15.60;;;8.20;;
19187;SDS011;9726;52.198;8.792;2022-11-15T07:41:14;13.03;;;6.67;;
19187;SDS011;9726;52.198;8.792;2022-11-15T07:43:59;16.43;;;7.20;;
19187;SDS011;9726;52.198;8.792;2022-11-15T07:46:45;11.47;;;6.60;;
19187;SDS011;9726;52.198;8.792;2022-11-15T07:49:31;11.57;;;6.20;;
19187;SDS011;9726;52.198;8.792;2022-11-15T07:52:16;11.67;;;6.70;;
19187;SDS011;9726;52.198;8.792;2022-11-15T07:55:02;10.43;;;6.80;;
19187;SDS011;9726;52.198;8.792;2022-11-15T07:57:48;9.50;;;6.13;;
19187;SDS011;9726;52.198;8.792;2022-11-15T08:00:35;9.07;;;6.37;;
19187;SDS011;9726;52.198;8.792;2022-11-15T08:03:21;9.50;;;6.37;;
19187;SDS011;9726;52.198;8.792;2022-11-15T08:06:06;8.87;;;6.03;;
19187;SDS011;9726;52.198;8.792;2022-11-15T08:08:52;13.20;;;6.43;;
19187;SDS011;9726;52.198;8.792;2022-11-15T08:11:37;10.17;;;5.83;;
19187;SDS011;9726;52.198;8.792;2022-11-15T08:14:23;8.77;;;5.67;;
19187;SDS011;9726;52.198;8.792;2022-11-15T08:17:09;12.33;;;5.10;;
19187;SDS011;9726;52.198;8.792;2022-11-15T08:19:55;10.17;;;5.97;;
19187;SDS011;9726;52.198;8.792;2022-11-15T08:22:40;10.27;;;5.57;;
19187;SDS011;9726;52.198;8.792;2022-11-15T08:25:26;6.47;;;4.50;;
19187;SDS011;9726;52.198;8.792;2022-11-15T08:28:15;10.10;;;5.07;;
19187;SDS011;9726;52.198;8.792;2022-11-15T08:31:02;13.10;;;5.17;;
19187;SDS011;9726;52.198;8.792;2022-11-15T08:33:48;8.93;;;5.23;;
19187;SDS011;9726;52.198;8.792;2022-11-15T08:36:34;6.63;;;4.33;;
19187;SDS011;9726;52.198;8.792;2022-11-15T08:39:30;10.37;;;4.83;;
19187;SDS011;9726;52.198;8.792;2022-11-15T08:42:16;11.07;;;4.47;;
19187;SDS011;9726;52.198;8.792;2022-11-15T08:45:04;7.90;;;4.67;;
19187;SDS011;9726;52.198;8.792;2022-11-15T08:47:50;7.87;;;4.40;;
19187;SDS011;9726;52.198;8.792;2022-11-15T08:50:38;11.77;;;4.93;;
19187;SDS011;9726;52.198;8.792;2022-11-15T08:53:24;9.97;;;5.20;;
19187;SDS011;9726;52.198;8.792;2022-11-15T08:56:11;12.60;;;5.37;;
19187;SDS011;9726;52.198;8.792;2022-11-15T08:58:57;15.60;;;6.57;;
19187;SDS011;9726;52.198;8.792;2022-11-15T09:01:43;14.00;;;6.20;;
19187;SDS011;9726;52.198;8.792;2022-11-15T09:04:28;11.70;;;5.53;;
19187;SDS011;9726;52.198;8.792;2022-11-15T09:07:14;7.37;;;4.57;;
19187;SDS011;9726;52.198;8.792;2022-11-15T09:10:00;11.13;;;5.53;;
19187;SDS011;9726;52.198;8.792;2022-11-15T09:12:46;9.70;;;5.77;;
19187;SDS011;9726;52.198;8.792;2022-11-15T09:15:33;7.33;;;4.80;;
19187;SDS011;9726;52.198;8.792;2022-11-15T09:18:19;5.97;;;3.77;;
19187;SDS011;9726;52.198;8.792;2022-11-15T09:21:07;6.17;;;3.63;;
19187;SDS011;9726;52.198;8.792;2022-11-15T09:23:53;6.10;;;3.77;;
19187;SDS011;9726;52.198;8.792;2022-11-15T09:26:38;6.10;;;3.40;;
19187;SDS011;9726;52.198;8.792;2022-11-15T09:29:24;4.57;;;3.00;;
19187;SDS011;9726;52.198;8.792;2022-11-15T09:32:10;4.57;;;2.80;;
19187;SDS011;9726;52.198;8.792;2022-11-15T09:34:56;15.13;;;4.03;;
19187;SDS011;9726;52.198;8.792;2022-11-15T09:37:42;8.57;;;3.27;;
19187;SDS011;9726;52.198;8.792;2022-11-15T09:40:29;4.00;;;2.73;;
19187;SDS011;9726;52.198;8.792;2022-11-15T09:43:25;7.37;;;2.93;;
19187;SDS011;9726;52.198;8.792;2022-11-15T09:46:22;3.83;;;2.50;;
19187;SDS011;9726;52.198;8.792;2022-11-15T09:49:42;4.57;;;2.80;;
19187;SDS011;9726;52.198;8.792;2022-11-15T09:52:22;2.93;;;2.37;;
19187;SDS011;9726;52.198;8.792;2022-11-15T09:54:50;4.63;;;2.43;;
19187;SDS011;9726;52.198;8.792;2022-11-15T09:57:31;3.77;;;2.63;;
19187;SDS011;9726;52.198;8.792;2022-11-15T10:00:08;5.83;;;2.47;;
19187;SDS011;9726;52.198;8.792;2022-11-15T10:05:51;6.17;;;2.97;;
19187;SDS011;9726;52.198;8.792;2022-11-15T10:11:23;2.67;;;1.97;;
19187;SDS011;9726;52.198;8.792;2022-11-15T10:25:00;2.83;;;1.63;;
19187;SDS011;9726;52.198;8.792;2022-11-15T10:27:27;3.77;;;1.97;;
19187;SDS011;9726;52.198;8.792;2022-11-15T10:29:56;2.83;;;2.10;;
19187;SDS011;9726;52.198;8.792;2022-11-15T10:32:23;3.60;;;1.77;;
19187;SDS011;9726;52.198;8.792;2022-11-15T10:34:50;6.67;;;2.20;;
19187;SDS011;9726;52.198;8.792;2022-11-15T10:37:28;7.10;;;2.50;;
19187;SDS011;9726;52.198;8.792;2022-11-15T10:40:02;6.03;;;2.03;;
19187;SDS011;9726;52.198;8.792;2022-11-15T10:42:40;2.53;;;1.90;;
19187;SDS011;9726;52.198;8.792;2022-11-15T10:48:29;3.10;;;1.97;;
19187;SDS011;9726;52.198;8.792;2022-11-15T10:50:49;2.07;;;1.80;;
19187;SDS011;9726;52.198;8.792;2022-11-15T10:53:22;2.77;;;1.63;;
19187;SDS011;9726;52.198;8.792;2022-11-15T10:55:58;2.60;;;1.40;;
19187;SDS011;9726;52.198;8.792;2022-11-15T11:01:13;2.33;;;1.63;;
19187;SDS011;9726;52.198;8.792;2022-11-15T11:06:26;3.87;;;1.70;;
19187;SDS011;9726;52.198;8.792;2022-11-15T11:08:58;4.20;;;1.80;;
19187;SDS011;9726;52.198;8.792;2022-11-15T11:11:50;4.27;;;1.60;;
19187;SDS011;9726;52.198;8.792;2022-11-15T11:14:27;3.37;;;1.67;;
19187;SDS011;9726;52.198;8.792;2022-11-15T11:17:48;2.47;;;1.33;;
19187;SDS011;9726;52.198;8.792;2022-11-15T11:25:33;1.33;;;1.10;;
19187;SDS011;9726;52.198;8.792;2022-11-15T11:33:30;2.57;;;1.40;;
19187;SDS011;9726;52.198;8.792;2022-11-15T11:36:21;4.23;;;1.37;;
19187;SDS011;9726;52.198;8.792;2022-11-15T11:42:17;4.27;;;2.10;;
19187;SDS011;9726;52.198;8.792;2022-11-15T11:45:24;3.13;;;1.50;;
19187;SDS011;9726;52.198;8.792;2022-11-15T11:48:20;3.77;;;1.73;;
19187;SDS011;9726;52.198;8.792;2022-11-15T11:50:50;3.87;;;1.80;;
19187;SDS011;9726;52.198;8.792;2022-11-15T11:53:30;2.97;;;1.50;;
19187;SDS011;9726;52.198;8.792;2022-11-15T11:56:14;3.47;;;1.70;;
19187;SDS011;9726;52.198;8.792;2022-11-15T11:59:10;1.83;;;1.57;;
19187;SDS011;9726;52.198;8.792;2022-11-15T12:01:51;2.60;;;1.70;;
19187;SDS011;9726;52.198;8.792;2022-11-15T12:04:29;7.07;;;1.60;;
19187;SDS011;9726;52.198;8.792;2022-11-15T12:09:33;3.33;;;1.87;;
19187;SDS011;9726;52.198;8.792;2022-11-15T12:14:52;2.80;;;1.57;;
19187;SDS011;9726;52.198;8.792;2022-11-15T12:17:26;2.40;;;1.60;;
19187;SDS011;9726;52.198;8.792;2022-11-15T12:20:02;3.70;;;1.60;;
19187;SDS011;9726;52.198;8.792;2022-11-15T12:22:44;5.70;;;1.90;;
19187;SDS011;9726;52.198;8.792;2022-11-15T12:25:26;6.50;;;1.80;;
19187;SDS011;9726;52.198;8.792;2022-11-15T12:28:06;3.63;;;1.90;;
19187;SDS011;9726;52.198;8.792;2022-11-15T12:33:38;8.27;;;2.33;;
19187;SDS011;9726;52.198;8.792;2022-11-15T12:38:58;3.50;;;1.90;;
19187;SDS011;9726;52.198;8.792;2022-11-15T12:41:28;5.43;;;1.87;;
19187;SDS011;9726;52.198;8.792;2022-11-15T12:43:56;2.63;;;1.93;;
19187;SDS011;9726;52.198;8.792;2022-11-15T13:02:43;4.93;;;2.43;;
19187;SDS011;9726;52.198;8.792;2022-11-15T13:20:55;5.43;;;2.73;;
19187;SDS011;9726;52.198;8.792;2022-11-15T13:23:28;5.10;;;2.93;;
19187;SDS011;9726;52.198;8.792;2022-11-15T13:28:45;6.13;;;2.53;;
19187;SDS011;9726;52.198;8.792;2022-11-15T13:31:29;6.13;;;2.23;;
19187;SDS011;9726;52.198;8.792;2022-11-15T13:37:12;3.43;;;2.53;;
19187;SDS011;9726;52.198;8.792;2022-11-15T13:48:39;5.37;;;2.97;;
19187;SDS011;9726;52.198;8.792;2022-11-15T13:51:14;8.33;;;2.50;;
19187;SDS011;9726;52.198;8.792;2022-11-15T13:53:50;3.97;;;2.50;;
19187;SDS011;9726;52.198;8.792;2022-11-15T13:56:23;3.70;;;2.53;;
19187;SDS011;9726;52.198;8.792;2022-11-15T13:58:52;8.10;;;2.83;;
19187;SDS011;9726;52.198;8.792;2022-11-15T14:01:21;3.70;;;2.67;;
19187;SDS011;9726;52.198;8.792;2022-11-15T14:03:51;6.43;;;2.30;;
19187;SDS011;9726;52.198;8.792;2022-11-15T14:06:22;8.00;;;2.47;;
19187;SDS011;9726;52.198;8.792;2022-11-15T14:11:36;6.37;;;2.10;;
19187;SDS011;9726;52.198;8.792;2022-11-15T14:16:53;3.60;;;2.07;;
19187;SDS011;9726;52.198;8.792;2022-11-15T14:24:36;5.53;;;2.20;;
19187;SDS011;9726;52.198;8.792;2022-11-15T14:29:53;6.73;;;2.57;;
19187;SDS011;9726;52.198;8.792;2022-11-15T14:32:22;4.87;;;2.43;;
19187;SDS011;9726;52.198;8.792;2022-11-15T14:34:58;14.27;;;2.73;;
19187;SDS011;9726;52.198;8.792;2022-11-15T14:37:30;8.03;;;2.80;;
19187;SDS011;9726;52.198;8.792;2022-11-15T14:40:03;5.17;;;2.70;;
19187;SDS011;9726;52.198;8.792;2022-11-15T14:42:31;8.20;;;2.33;;
19187;SDS011;9726;52.198;8.792;2022-11-15T14:44:59;3.33;;;2.07;;
19187;SDS011;9726;52.198;8.792;2022-11-15T14:47:26;4.37;;;2.43;;
19187;SDS011;9726;52.198;8.792;2022-11-15T14:49:54;6.63;;;2.80;;
19187;SDS011;9726;52.198;8.792;2022-11-15T14:52:28;6.60;;;2.27;;
19187;SDS011;9726;52.198;8.792;2022-11-15T14:54:59;3.93;;;2.30;;
19187;SDS011;9726;52.198;8.792;2022-11-15T14:57:29;4.37;;;2.47;;
19187;SDS011;9726;52.198;8.792;2022-11-15T14:59:57;5.67;;;2.17;;
19187;SDS011;9726;52.198;8.792;2022-11-15T15:02:37;3.87;;;2.33;;
19187;SDS011;9726;52.198;8.792;2022-11-15T15:07:43;8.07;;;2.47;;
19187;SDS011;9726;52.198;8.792;2022-11-15T15:10:11;4.27;;;1.97;;
19187;SDS011;9726;52.198;8.792;2022-11-15T15:12:59;5.13;;;2.23;;
19187;SDS011;9726;52.198;8.792;2022-11-15T15:15:34;22.67;;;2.57;;
19187;SDS011;9726;52.198;8.792;2022-11-15T15:18:03;4.83;;;2.67;;
19187;SDS011;9726;52.198;8.792;2022-11-15T15:20:31;4.03;;;2.43;;
19187;SDS011;9726;52.198;8.792;2022-11-15T15:22:58;4.73;;;2.87;;
19187;SDS011;9726;52.198;8.792;2022-11-15T15:25:35;5.27;;;2.57;;
19187;SDS011;9726;52.198;8.792;2022-11-15T15:28:02;5.60;;;2.43;;
19187;SDS011;9726;52.198;8.792;2022-11-15T15:30:30;2.73;;;2.23;;
19187;SDS011;9726;52.198;8.792;2022-11-15T15:32:57;8.03;;;2.20;;
19187;SDS011;9726;52.198;8.792;2022-11-15T15:35:26;4.53;;;2.37;;
19187;SDS011;9726;52.198;8.792;2022-11-15T15:37:57;7.30;;;2.20;;
19187;SDS011;9726;52.198;8.792;2022-11-15T15:40:26;8.20;;;2.80;;
19187;SDS011;9726;52.198;8.792;2022-11-15T15:42:55;7.30;;;2.70;;
19187;SDS011;9726;52.198;8.792;2022-11-15T15:45:22;4.80;;;2.63;;
19187;SDS011;9726;52.198;8.792;2022-11-15T15:47:49;4.23;;;2.77;;
19187;SDS011;9726;52.198;8.792;2022-11-15T15:50:28;11.60;;;3.57;;
19187;SDS011;9726;52.198;8.792;2022-11-15T15:52:59;10.33;;;2.93;;
19187;SDS011;9726;52.198;8.792;2022-11-15T15:55:27;9.33;;;2.63;;
19187;SDS011;9726;52.198;8.792;2022-11-15T15:57:55;8.77;;;3.00;;
19187;SDS011;9726;52.198;8.792;2022-11-15T16:00:23;9.30;;;3.63;;
19187;SDS011;9726;52.198;8.792;2022-11-15T16:02:52;8.87;;;3.53;;
19187;SDS011;9726;52.198;8.792;2022-11-15T16:05:20;7.20;;;3.43;;
19187;SDS011;9726;52.198;8.792;2022-11-15T16:07:47;5.03;;;3.00;;
19187;SDS011;9726;52.198;8.792;2022-11-15T16:12:43;6.27;;;3.43;;
19187;SDS011;9726;52.198;8.792;2022-11-15T16:15:10;7.83;;;3.13;;
19187;SDS011;9726;52.198;8.792;2022-11-15T16:17:38;5.70;;;2.83;;
19187;SDS011;9726;52.198;8.792;2022-11-15T16:23:09;6.53;;;3.07;;
19187;SDS011;9726;52.198;8.792;2022-11-15T16:25:48;7.23;;;2.57;;
19187;SDS011;9726;52.198;8.792;2022-11-15T16:30:49;7.67;;;3.53;;
19187;SDS011;9726;52.198;8.792;2022-11-15T16:33:25;4.97;;;3.37;;
19187;SDS011;9726;52.198;8.792;2022-11-15T16:35:53;7.87;;;2.80;;
19187;SDS011;9726;52.198;8.792;2022-11-15T16:38:20;10.67;;;3.17;;
19187;SDS011;9726;52.198;8.792;2022-11-15T16:40:48;4.60;;;2.83;;
19187;SDS011;9726;52.198;8.792;2022-11-15T16:43:22;9.13;;;2.33;;
19187;SDS011;9726;52.198;8.792;2022-11-15T16:45:55;5.63;;;2.80;;
19187;SDS011;9726;52.198;8.792;2022-11-15T16:48:23;5.13;;;2.97;;
19187;SDS011;9726;52.198;8.792;2022-11-15T16:50:55;10.80;;;3.40;;
19187;SDS011;9726;52.198;8.792;2022-11-15T16:53:24;4.50;;;3.17;;
19187;SDS011;9726;52.198;8.792;2022-11-15T16:55:52;4.13;;;3.30;;
19187;SDS011;9726;52.198;8.792;2022-11-15T16:58:20;4.57;;;2.80;;
19187;SDS011;9726;52.198;8.792;2022-11-15T17:00:51;10.27;;;3.20;;
19187;SDS011;9726;52.198;8.792;2022-11-15T17:03:19;8.50;;;3.00;;
19187;SDS011;9726;52.198;8.792;2022-11-15T17:05:48;6.67;;;3.60;;
19187;SDS011;9726;52.198;8.792;2022-11-15T17:08:15;5.47;;;3.10;;
19187;SDS011;9726;52.198;8.792;2022-11-15T17:10:43;4.93;;;3.23;;
19187;SDS011;9726;52.198;8.792;2022-11-15T17:13:13;7.53;;;2.60;;
19187;SDS011;9726;52.198;8.792;2022-11-15T17:15:40;4.37;;;2.80;;
19187;SDS011;9726;52.198;8.792;2022-11-15T17:18:11;10.27;;;4.03;;
19187;SDS011;9726;52.198;8.792;2022-11-15T17:20:42;4.77;;;2.77;;
19187;SDS011;9726;52.198;8.792;2022-11-15T17:23:12;5.63;;;2.57;;
19187;SDS011;9726;52.198;8.792;2022-11-15T17:25:40;5.57;;;2.60;;
19187;SDS011;9726;52.198;8.792;2022-11-15T17:28:08;4.07;;;3.07;;
19187;SDS011;9726;52.198;8.792;2022-11-15T17:30:36;6.80;;;2.20;;
19187;SDS011;9726;52.198;8.792;2022-11-15T17:33:03;3.23;;;2.30;;
19187;SDS011;9726;52.198;8.792;2022-11-15T17:35:30;4.23;;;2.70;;
19187;SDS011;9726;52.198;8.792;2022-11-15T17:37:58;4.90;;;2.53;;
19187;SDS011;9726;52.198;8.792;2022-11-15T17:40:25;6.50;;;2.73;;
19187;SDS011;9726;52.198;8.792;2022-11-15T17:42:52;8.37;;;2.63;;
19187;SDS011;9726;52.198;8.792;2022-11-15T17:45:20;4.13;;;2.60;;
19187;SDS011;9726;52.198;8.792;2022-11-15T17:47:48;6.63;;;3.20;;
19187;SDS011;9726;52.198;8.792;2022-11-15T17:50:15;3.67;;;2.90;;
19187;SDS011;9726;52.198;8.792;2022-11-15T17:52:43;6.00;;;3.20;;
19187;SDS011;9726;52.198;8.792;2022-11-15T17:55:10;4.63;;;3.23;;
19187;SDS011;9726;52.198;8.792;2022-11-15T17:57:38;4.70;;;3.37;;
19187;SDS011;9726;52.198;8.792;2022-11-15T18:00:05;6.60;;;2.93;;
19187;SDS011;9726;52.198;8.792;2022-11-15T18:02:33;6.10;;;3.90;;
19187;SDS011;9726;52.198;8.792;2022-11-15T18:05:00;8.20;;;3.33;;
19187;SDS011;9726;52.198;8.792;2022-11-15T18:07:28;5.47;;;3.43;;
19187;SDS011;9726;52.198;8.792;2022-11-15T18:09:56;7.30;;;3.77;;
19187;SDS011;9726;52.198;8.792;2022-11-15T18:12:23;6.87;;;4.10;;
19187;SDS011;9726;52.198;8.792;2022-11-15T18:14:51;8.07;;;4.63;;
19187;SDS011;9726;52.198;8.792;2022-11-15T18:17:18;6.17;;;3.73;;
19187;SDS011;9726;52.198;8.792;2022-11-15T18:19:46;3.80;;;3.23;;
19187;SDS011;9726;52.198;8.792;2022-11-15T18:22:14;10.73;;;4.30;;
19187;SDS011;9726;52.198;8.792;2022-11-15T18:24:41;7.47;;;4.17;;
19187;SDS011;9726;52.198;8.792;2022-11-15T18:27:10;8.67;;;3.90;;
19187;SDS011;9726;52.198;8.792;2022-11-15T18:29:37;9.93;;;4.97;;
19187;SDS011;9726;52.198;8.792;2022-11-15T18:32:05;9.20;;;4.93;;
19187;SDS011;9726;52.198;8.792;2022-11-15T18:34:37;7.53;;;3.67;;
19187;SDS011;9726;52.198;8.792;2022-11-15T18:37:05;9.50;;;4.23;;
19187;SDS011;9726;52.198;8.792;2022-11-15T18:39:32;9.97;;;4.33;;
19187;SDS011;9726;52.198;8.792;2022-11-15T18:42:00;7.50;;;4.77;;
19187;SDS011;9726;52.198;8.792;2022-11-15T18:44:27;6.70;;;4.03;;
19187;SDS011;9726;52.198;8.792;2022-11-15T18:46:55;8.77;;;3.80;;
19187;SDS011;9726;52.198;8.792;2022-11-15T18:49:23;8.73;;;4.30;;